createdAt,value
2018-04-16T00:02:02.070Z,14.28
2018-04-16T00:04:30.413Z,14.26
2018-04-16T00:06:58.749Z,14.30
2018-04-16T00:09:27.293Z,14.23
2018-04-16T00:11:55.687Z,14.35
2018-04-16T00:14:24.022Z,14.33
2018-04-16T00:16:52.361Z,14.33
2018-04-16T00:19:20.695Z,14.28
2018-04-16T00:21:49.044Z,14.30
2018-04-16T00:24:17.464Z,14.33
2018-04-16T00:26:45.802Z,14.37
2018-04-16T00:29:14.133Z,14.31
2018-04-16T00:31:48.022Z,14.33
2018-04-16T00:34:21.880Z,14.26
2018-04-16T00:36:55.841Z,14.29
2018-04-16T00:39:30.177Z,14.26
2018-04-16T00:42:04.002Z,14.28
2018-04-16T00:44:38.049Z,14.22
2018-04-16T00:47:11.993Z,14.07
2018-04-16T00:49:46.092Z,14.05
2018-04-16T00:52:20.005Z,13.96
2018-04-16T00:54:53.877Z,13.92
2018-04-16T00:57:27.690Z,13.79
2018-04-16T01:00:01.917Z,13.63
2018-04-16T01:02:35.825Z,13.62
2018-04-16T01:05:09.894Z,13.74
2018-04-16T01:07:44.362Z,13.68
2018-04-16T01:10:18.269Z,13.61
2018-04-16T01:12:52.187Z,13.62
2018-04-16T01:15:26.086Z,13.74
2018-04-16T01:18:00.087Z,13.59
2018-04-16T01:20:34.003Z,13.58
2018-04-16T01:23:08.107Z,13.55
2018-04-16T01:25:42.164Z,13.59
2018-04-16T01:28:15.952Z,13.51
2018-04-16T01:30:49.928Z,13.49
2018-04-16T01:36:23.060Z,13.32
2018-04-16T01:38:57.052Z,13.35
2018-04-16T01:41:34.294Z,13.38
2018-04-16T01:44:08.326Z,13.30
2018-04-16T01:46:42.239Z,13.32
2018-04-16T01:49:18.327Z,13.29
2018-04-16T01:51:52.232Z,13.29
2018-04-16T01:54:26.273Z,13.23
2018-04-16T01:57:00.369Z,13.30
2018-04-16T01:59:37.865Z,13.30
2018-04-16T02:02:11.902Z,13.26
2018-04-16T02:04:45.920Z,13.27
2018-04-16T02:07:19.841Z,13.17
2018-04-16T02:09:55.881Z,13.31
2018-04-16T02:12:29.967Z,13.19
2018-04-16T02:15:03.923Z,12.98
2018-04-16T02:17:37.862Z,13.14
2018-04-16T02:20:11.758Z,13.11
2018-04-16T02:22:45.688Z,13.11
2018-04-16T02:25:19.434Z,12.98
2018-04-16T02:27:53.315Z,12.98
2018-04-16T02:30:27.316Z,13.06
2018-04-16T02:33:01.158Z,13.02
2018-04-16T02:35:35.158Z,13.05
2018-04-16T02:38:09.069Z,12.91
2018-04-16T02:40:43.149Z,12.87
2018-04-16T02:43:17.152Z,12.78
2018-04-16T02:45:51.231Z,12.71
2018-04-16T02:51:38.376Z,12.75
2018-04-16T02:54:12.308Z,12.58
2018-04-16T02:56:46.321Z,12.81
2018-04-16T02:59:21.133Z,12.70
2018-04-16T03:01:54.995Z,12.57
2018-04-16T03:04:28.747Z,12.58
2018-04-16T03:07:02.795Z,12.60
2018-04-16T03:09:36.826Z,12.61
2018-04-16T03:12:10.842Z,12.62
2018-04-16T03:14:44.760Z,12.61
2018-04-16T03:17:18.838Z,12.56
2018-04-16T03:19:52.842Z,12.60
2018-04-16T03:22:26.849Z,12.57
2018-04-16T03:25:00.713Z,12.61
2018-04-16T03:27:34.640Z,12.59
2018-04-16T03:30:08.565Z,12.65
2018-04-16T03:35:43.765Z,12.52
2018-04-16T03:38:17.585Z,12.69
2018-04-16T03:40:51.610Z,12.64
2018-04-16T03:43:25.625Z,12.62
2018-04-16T03:45:59.641Z,12.64
2018-04-16T03:48:33.606Z,12.60
2018-04-16T03:51:07.673Z,12.67
2018-04-16T03:53:42.385Z,12.61
2018-04-16T03:56:10.686Z,12.79
2018-04-16T03:58:39.074Z,12.74
2018-04-16T04:01:07.383Z,12.85
2018-04-16T04:03:35.723Z,12.80
2018-04-16T04:06:04.036Z,12.79
2018-04-16T04:08:32.486Z,12.90
2018-04-16T04:11:00.860Z,12.82
2018-04-16T04:13:29.180Z,12.79
2018-04-16T04:15:57.500Z,12.80
2018-04-16T04:18:25.805Z,12.75
2018-04-16T04:20:54.178Z,12.74
2018-04-16T04:23:34.333Z,12.75
2018-04-16T04:26:14.616Z,12.74
2018-04-16T04:28:54.980Z,12.74
2018-04-16T04:31:23.348Z,12.69
2018-04-16T04:33:51.660Z,12.71
2018-04-16T04:36:19.983Z,12.66
2018-04-16T04:38:48.296Z,12.77
2018-04-16T04:41:16.644Z,12.73
2018-04-16T04:43:45.048Z,12.65
2018-04-16T04:46:13.378Z,12.66
2018-04-16T04:48:41.775Z,12.60
2018-04-16T04:51:10.090Z,12.57
2018-04-16T04:53:38.443Z,12.58
2018-04-16T04:56:06.778Z,12.54
2018-04-16T04:58:35.089Z,12.44
2018-04-16T05:01:03.446Z,12.49
2018-04-16T05:03:31.810Z,12.53
2018-04-16T05:06:00.115Z,12.57
2018-04-16T05:08:28.432Z,12.51
2018-04-16T05:10:56.781Z,12.40
2018-04-16T05:13:25.159Z,12.41
2018-04-16T05:15:53.522Z,12.38
2018-04-16T05:18:21.910Z,12.30
2018-04-16T05:20:50.218Z,12.28
2018-04-16T05:23:18.556Z,12.37
2018-04-16T05:25:46.932Z,12.33
2018-04-16T05:28:15.312Z,12.38
2018-04-16T05:30:43.637Z,12.42
2018-04-16T05:33:11.968Z,12.36
2018-04-16T05:35:40.345Z,12.33
2018-04-16T05:38:08.679Z,12.30
2018-04-16T05:40:37.021Z,12.33
2018-04-16T05:43:05.368Z,12.23
2018-04-16T05:45:33.677Z,12.29
2018-04-16T05:48:02.071Z,12.18
2018-04-16T05:50:30.520Z,12.39
2018-04-16T05:52:58.848Z,12.23
2018-04-16T05:55:27.160Z,12.27
2018-04-16T05:57:55.496Z,12.16
2018-04-16T06:00:23.818Z,12.16
2018-04-16T06:02:52.196Z,12.04
2018-04-16T06:05:20.511Z,12.08
2018-04-16T06:07:48.845Z,12.09
2018-04-16T06:10:17.156Z,12.12
2018-04-16T06:12:45.469Z,12.11
2018-04-16T06:15:13.795Z,12.20
2018-04-16T06:17:42.105Z,12.29
2018-04-16T06:20:10.437Z,12.31
2018-04-16T06:22:38.744Z,12.19
2018-04-16T06:25:07.089Z,12.24
2018-04-16T06:27:35.407Z,12.20
2018-04-16T06:30:03.785Z,12.24
2018-04-16T06:32:32.119Z,12.29
2018-04-16T06:35:00.500Z,12.32
2018-04-16T06:37:28.806Z,12.38
2018-04-16T06:39:57.150Z,12.28
2018-04-16T06:42:25.520Z,12.27
2018-04-16T06:44:53.930Z,12.29
2018-04-16T06:47:22.287Z,12.52
2018-04-16T06:49:50.629Z,12.37
2018-04-16T06:52:19.049Z,12.48
2018-04-16T06:54:47.757Z,12.63
2018-04-16T06:57:16.107Z,12.67
2018-04-16T06:59:44.528Z,12.61
2018-04-16T07:02:12.869Z,12.67
2018-04-16T07:04:41.189Z,12.73
2018-04-16T07:07:09.535Z,12.56
2018-04-16T07:09:37.871Z,12.60
2018-04-16T07:12:06.212Z,12.90
2018-04-16T07:14:34.538Z,12.73
2018-04-16T07:17:02.876Z,12.56
2018-04-16T07:19:31.195Z,12.58
2018-04-16T07:21:59.533Z,12.66
2018-04-16T07:24:27.858Z,12.64
2018-04-16T07:26:56.204Z,13.04
2018-04-16T07:29:24.612Z,12.88
2018-04-16T07:31:53.036Z,12.76
2018-04-16T07:34:21.375Z,12.60
2018-04-16T07:36:49.723Z,12.77
2018-04-16T07:39:18.041Z,12.47
2018-04-16T07:41:46.438Z,12.65
2018-04-16T07:44:14.758Z,12.81
2018-04-16T07:46:43.376Z,12.88
2018-04-16T07:49:11.700Z,12.85
2018-04-16T07:51:40.012Z,12.90
2018-04-16T07:54:08.368Z,12.83
2018-04-16T07:56:36.700Z,12.70
2018-04-16T07:59:05.094Z,12.82
2018-04-16T08:01:33.451Z,12.97
2018-04-16T08:04:01.789Z,12.81
2018-04-16T08:06:30.109Z,12.72
2018-04-16T08:08:58.453Z,12.98
2018-04-16T08:11:26.775Z,13.08
2018-04-16T08:13:55.133Z,12.76
2018-04-16T08:16:23.456Z,12.80
2018-04-16T08:18:51.788Z,12.75
2018-04-16T08:21:20.110Z,12.92
2018-04-16T08:23:48.445Z,13.03
2018-04-16T08:26:16.819Z,12.92
2018-04-16T08:28:45.149Z,13.12
2018-04-16T08:31:13.465Z,13.04
2018-04-16T08:33:41.803Z,13.43
2018-04-16T08:36:10.124Z,13.04
2018-04-16T08:38:38.480Z,13.29
2018-04-16T08:41:06.800Z,13.30
2018-04-16T08:43:35.144Z,13.29
2018-04-16T08:46:03.533Z,13.77
2018-04-16T08:48:31.888Z,13.48
2018-04-16T08:51:00.202Z,13.80
2018-04-16T08:53:28.520Z,13.76
2018-04-16T08:55:56.860Z,13.67
2018-04-16T08:58:25.221Z,13.86
2018-04-16T09:00:53.549Z,13.90
2018-04-16T09:03:21.870Z,14.41
2018-04-16T09:05:50.209Z,14.36
2018-04-16T09:08:18.521Z,14.35
2018-04-16T09:10:46.861Z,14.15
2018-04-16T09:13:15.164Z,13.65
2018-04-16T09:15:43.557Z,13.66
2018-04-16T09:18:11.881Z,13.28
2018-04-16T09:20:40.201Z,13.47
2018-04-16T09:23:08.581Z,13.23
2018-04-16T09:25:36.975Z,13.24
2018-04-16T09:28:05.336Z,13.51
2018-04-16T09:30:33.717Z,13.44
2018-04-16T09:33:02.048Z,13.50
2018-04-16T09:35:30.472Z,13.62
2018-04-16T09:37:58.815Z,13.74
2018-04-16T09:40:27.130Z,13.65
2018-04-16T09:42:55.521Z,13.18
2018-04-16T09:45:23.888Z,13.28
2018-04-16T09:47:52.261Z,13.34
2018-04-16T09:50:20.706Z,13.63
2018-04-16T09:52:49.016Z,14.07
2018-04-16T09:55:17.367Z,14.22
2018-04-16T09:57:45.670Z,14.37
2018-04-16T10:00:14.049Z,14.65
2018-04-16T10:02:47.965Z,15.18
2018-04-16T10:05:16.341Z,14.35
2018-04-16T10:07:44.657Z,14.59
2018-04-16T10:10:13.000Z,14.91
2018-04-16T10:12:41.379Z,15.09
2018-04-16T10:15:09.796Z,14.26
2018-04-16T10:17:38.470Z,15.14
2018-04-16T10:20:06.828Z,15.17
2018-04-16T10:22:35.160Z,15.74
2018-04-16T10:25:03.620Z,15.88
2018-04-16T10:27:31.946Z,15.01
2018-04-16T10:30:00.355Z,14.96
2018-04-16T10:32:28.748Z,15.04
2018-04-16T10:34:57.022Z,15.13
2018-04-16T10:37:25.358Z,15.16
2018-04-16T10:39:53.685Z,14.93
2018-04-16T10:42:22.013Z,14.87
2018-04-16T10:44:50.324Z,15.13
2018-04-16T10:47:18.665Z,14.83
2018-04-16T10:49:47.125Z,14.77
2018-04-16T10:52:15.444Z,15.11
2018-04-16T10:54:43.800Z,15.15
2018-04-16T10:57:12.132Z,15.24
2018-04-16T10:59:40.576Z,14.99
2018-04-16T11:02:08.910Z,14.81
2018-04-16T11:04:37.224Z,14.81
2018-04-16T11:07:05.905Z,14.47
2018-04-16T11:09:34.285Z,14.74
2018-04-16T11:12:02.614Z,14.86
2018-04-16T11:14:31.045Z,15.29
2018-04-16T11:16:59.357Z,15.26
2018-04-16T11:19:27.749Z,15.35
2018-04-16T11:21:56.070Z,15.39
2018-04-16T11:24:24.453Z,15.21
2018-04-16T11:26:52.828Z,14.59
2018-04-16T11:29:21.166Z,14.72
2018-04-16T11:31:49.580Z,14.74
2018-04-16T11:34:17.976Z,14.73
2018-04-16T11:36:46.294Z,14.38
2018-04-16T11:39:14.629Z,14.74
2018-04-16T11:41:42.954Z,14.65
2018-04-16T11:44:11.290Z,14.80
2018-04-16T11:46:39.645Z,14.76
2018-04-16T11:49:07.993Z,14.89
2018-04-16T11:51:36.301Z,14.87
2018-04-16T11:54:04.645Z,14.57
2018-04-16T11:56:32.961Z,14.53
2018-04-16T11:59:01.299Z,14.49
2018-04-16T12:01:29.724Z,14.60
2018-04-16T12:03:58.060Z,14.69
2018-04-16T12:06:26.420Z,14.65
2018-04-16T12:08:54.820Z,14.98
2018-04-16T12:11:23.129Z,15.00
2018-04-16T12:13:51.484Z,15.03
2018-04-16T12:16:19.825Z,15.07
2018-04-16T12:18:48.132Z,15.20
2018-04-16T12:21:16.556Z,14.94
2018-04-16T12:23:44.923Z,14.82
2018-04-16T12:26:13.294Z,14.78
2018-04-16T12:28:41.601Z,14.71
2018-04-16T12:31:09.953Z,15.37
2018-04-16T12:33:38.266Z,15.66
2018-04-16T12:36:06.689Z,15.69
2018-04-16T12:38:35.086Z,15.87
2018-04-16T12:41:03.430Z,15.97
2018-04-16T12:43:31.765Z,15.39
2018-04-16T12:46:00.105Z,15.04
2018-04-16T12:48:28.539Z,15.10
2018-04-16T12:50:56.917Z,14.80
2018-04-16T12:53:25.209Z,14.46
2018-04-16T12:55:53.542Z,14.13
2018-04-16T12:58:21.890Z,14.16
2018-04-16T13:00:50.262Z,14.29
2018-04-16T13:03:18.672Z,14.05
2018-04-16T13:05:47.032Z,13.79
2018-04-16T13:08:15.362Z,14.02
2018-04-16T13:10:43.683Z,14.13
2018-04-16T13:13:12.026Z,13.99
2018-04-16T13:15:40.333Z,14.01
2018-04-16T13:18:08.730Z,14.07
2018-04-16T13:20:37.056Z,13.79
2018-04-16T13:23:05.493Z,13.83
2018-04-16T13:25:33.813Z,13.85
2018-04-16T13:28:02.145Z,13.82
2018-04-16T13:30:30.460Z,14.10
2018-04-16T13:32:58.893Z,13.99
2018-04-16T13:35:27.268Z,14.27
2018-04-16T13:37:55.780Z,14.35
2018-04-16T13:40:24.108Z,14.15
2018-04-16T13:42:52.450Z,13.98
2018-04-16T13:45:20.786Z,14.10
2018-04-16T13:47:49.166Z,14.55
2018-04-16T13:50:17.562Z,14.53
2018-04-16T13:52:45.885Z,14.43
2018-04-16T13:55:14.189Z,14.31
2018-04-16T13:57:42.569Z,14.88
2018-04-16T14:00:10.885Z,15.17
2018-04-16T14:02:39.229Z,15.27
2018-04-16T14:05:07.574Z,15.11
2018-04-16T14:07:35.885Z,15.19
2018-04-16T14:10:05.188Z,15.41
2018-04-16T14:12:33.617Z,15.65
2018-04-16T14:15:01.945Z,15.47
2018-04-16T14:17:30.364Z,15.31
2018-04-16T14:19:58.744Z,15.56
2018-04-16T14:22:27.080Z,16.07
2018-04-16T14:24:55.426Z,15.92
2018-04-16T14:27:23.833Z,16.41
2018-04-16T14:29:52.170Z,16.17
2018-04-16T14:32:20.494Z,16.49
2018-04-16T14:34:48.841Z,16.36
2018-04-16T14:37:17.165Z,16.13
2018-04-16T14:39:45.508Z,16.02
2018-04-16T14:42:13.822Z,15.93
2018-04-16T14:44:42.276Z,16.01
2018-04-16T14:47:10.669Z,15.90
2018-04-16T14:49:38.984Z,16.15
2018-04-16T14:52:07.312Z,16.50
2018-04-16T14:54:35.696Z,17.45
2018-04-16T14:57:04.068Z,18.29
2018-04-16T14:59:32.442Z,17.72
2018-04-16T15:02:00.777Z,18.63
2018-04-16T15:04:29.101Z,21.19
2018-04-16T15:06:57.425Z,21.34
2018-04-16T15:09:25.741Z,21.39
2018-04-16T15:11:54.077Z,20.41
2018-04-16T15:14:22.425Z,19.62
2018-04-16T15:16:50.788Z,19.03
2018-04-16T15:19:19.105Z,18.13
2018-04-16T15:21:47.452Z,18.57
2018-04-16T15:24:15.766Z,18.26
2018-04-16T15:26:44.172Z,17.76
2018-04-16T15:29:12.510Z,17.73
2018-04-16T15:31:40.840Z,17.65
2018-04-16T15:34:10.160Z,16.94
2018-04-16T15:36:38.514Z,17.25
2018-04-16T15:39:06.849Z,16.88
2018-04-16T15:41:35.187Z,17.13
2018-04-16T15:44:03.573Z,17.22
2018-04-16T15:46:31.909Z,17.53
2018-04-16T15:49:00.245Z,18.12
2018-04-16T15:51:28.561Z,19.02
2018-04-16T15:53:56.910Z,20.26
2018-04-16T15:56:25.218Z,18.24
2018-04-16T15:58:53.554Z,17.22
2018-04-16T16:01:21.881Z,16.73
2018-04-16T16:03:50.219Z,16.37
2018-04-16T16:06:19.649Z,16.41
2018-04-16T16:08:49.945Z,16.25
2018-04-16T16:11:18.335Z,15.91
2018-04-16T16:13:46.637Z,15.72
2018-04-16T16:16:15.049Z,15.58
2018-04-16T16:18:43.400Z,15.54
2018-04-16T16:21:11.841Z,15.00
2018-04-16T16:23:40.180Z,14.94
2018-04-16T16:26:08.574Z,14.88
2018-04-16T16:28:37.000Z,14.60
2018-04-16T16:31:05.310Z,14.49
2018-04-16T16:33:33.674Z,14.39
2018-04-16T16:36:02.809Z,13.97
2018-04-16T16:38:33.521Z,14.04
2018-04-16T16:41:02.710Z,14.03
2018-04-16T16:43:31.038Z,14.09
2018-04-16T16:45:59.370Z,14.15
2018-04-16T16:48:27.674Z,14.28
2018-04-16T16:50:56.016Z,13.99
2018-04-16T16:53:24.325Z,14.00
2018-04-16T16:55:52.653Z,14.14
2018-04-16T16:58:20.981Z,14.07
2018-04-16T17:00:49.338Z,14.13
2018-04-16T17:03:17.650Z,14.18
2018-04-16T17:05:45.983Z,14.08
2018-04-16T17:08:14.303Z,14.25
2018-04-16T17:10:42.684Z,14.30
2018-04-16T17:13:10.984Z,14.23
2018-04-16T17:15:40.669Z,14.10
2018-04-16T17:18:08.965Z,13.92
2018-04-16T17:20:37.307Z,13.74
2018-04-16T17:23:05.610Z,13.88
2018-04-16T17:25:33.955Z,13.83
2018-04-16T17:28:02.261Z,13.73
2018-04-16T17:30:30.608Z,13.52
2018-04-16T17:32:58.968Z,13.56
2018-04-16T17:35:27.317Z,13.45
2018-04-16T17:37:55.747Z,13.42
2018-04-16T17:40:24.148Z,13.22
2018-04-16T17:42:52.526Z,13.31
2018-04-16T17:45:20.822Z,13.32
2018-04-16T17:47:49.175Z,13.30
2018-04-16T17:50:17.494Z,13.14
2018-04-16T17:52:45.902Z,13.18
2018-04-16T17:55:14.276Z,13.21
2018-04-16T17:57:42.634Z,13.04
2018-04-16T18:00:10.930Z,13.11
2018-04-16T18:02:39.305Z,13.14
2018-04-16T18:05:07.685Z,13.18
2018-04-16T18:07:36.005Z,13.07
2018-04-16T18:10:04.337Z,13.07
2018-04-16T18:12:32.665Z,12.98
2018-04-16T18:15:00.972Z,13.05
2018-04-16T18:17:29.368Z,13.01
2018-04-16T18:19:57.686Z,13.04
2018-04-16T18:22:26.026Z,13.08
2018-04-16T18:24:54.373Z,13.12
2018-04-16T18:27:22.722Z,13.15
2018-04-16T18:29:51.056Z,13.17
2018-04-16T18:32:19.381Z,13.19
2018-04-16T18:34:47.812Z,13.14
2018-04-16T18:37:16.137Z,13.11
2018-04-16T18:39:44.461Z,13.07
2018-04-16T18:42:12.861Z,13.05
2018-04-16T18:44:41.185Z,13.13
2018-04-16T18:47:09.606Z,13.13
2018-04-16T18:49:37.982Z,13.08
2018-04-16T18:52:06.404Z,13.04
2018-04-16T18:54:34.744Z,12.99
2018-04-16T18:57:03.062Z,13.03
2018-04-16T18:59:31.398Z,12.97
2018-04-16T19:01:59.716Z,13.26
2018-04-16T19:04:28.075Z,13.04
2018-04-16T19:06:56.390Z,13.04
2018-04-16T19:09:24.717Z,12.91
2018-04-16T19:11:53.088Z,12.80
2018-04-16T19:14:21.432Z,12.87
2018-04-16T19:16:50.945Z,12.82
2018-04-16T19:19:19.253Z,12.76
2018-04-16T19:21:53.107Z,12.70
2018-04-16T19:24:21.530Z,12.73
2018-04-16T19:26:55.404Z,12.69
2018-04-16T19:29:23.762Z,12.78
2018-04-16T19:31:52.096Z,12.58
2018-04-16T19:34:26.139Z,12.67
2018-04-16T19:36:54.463Z,12.68
2018-04-16T19:39:22.780Z,12.67
2018-04-16T19:41:56.740Z,12.62
2018-04-16T19:44:25.008Z,12.52
2018-04-16T19:46:53.416Z,12.58
2018-04-16T19:49:28.709Z,12.49
2018-04-16T19:51:57.047Z,12.45
2018-04-16T19:54:25.364Z,12.53
2018-04-16T19:56:59.471Z,12.49
2018-04-16T19:59:27.800Z,12.38
2018-04-16T20:02:01.592Z,12.51
2018-04-16T20:04:29.914Z,12.51
2018-04-16T20:06:58.263Z,12.44
2018-04-16T20:09:26.649Z,12.34
2018-04-16T20:11:54.988Z,12.38
2018-04-16T20:14:23.298Z,12.27
2018-04-16T20:16:51.682Z,12.21
2018-04-16T20:19:20.001Z,12.16
2018-04-16T20:21:48.322Z,12.08
2018-04-16T20:24:16.697Z,12.14
2018-04-16T20:26:45.081Z,12.07
2018-04-16T20:29:13.510Z,12.08
2018-04-16T20:31:41.836Z,12.09
2018-04-16T20:34:10.156Z,12.08
2018-04-16T20:36:38.589Z,11.97
2018-04-16T20:39:06.976Z,11.91
2018-04-16T20:41:35.290Z,12.01
2018-04-16T20:44:03.655Z,12.09
2018-04-16T20:46:32.029Z,12.05
2018-04-16T20:49:00.389Z,12.10
2018-04-16T20:51:28.698Z,12.13
2018-04-16T20:53:57.046Z,12.08
2018-04-16T20:56:25.365Z,12.04
2018-04-16T20:58:53.698Z,12.00
2018-04-16T21:01:22.074Z,12.03
2018-04-16T21:03:50.417Z,11.98
2018-04-16T21:06:18.752Z,11.99
2018-04-16T21:08:47.085Z,12.12
2018-04-16T21:11:15.385Z,12.12
2018-04-16T21:13:43.713Z,12.16
2018-04-16T21:16:12.015Z,12.13
2018-04-16T21:18:40.352Z,12.03
2018-04-16T21:21:08.798Z,12.12
2018-04-16T21:23:37.176Z,12.05
2018-04-16T21:26:05.480Z,12.10
2018-04-16T21:28:33.842Z,12.13
2018-04-16T21:31:02.208Z,12.16
2018-04-16T21:33:30.521Z,12.14
2018-04-16T21:35:58.957Z,12.22
2018-04-16T21:38:27.264Z,12.23
2018-04-16T21:40:55.594Z,12.23
2018-04-16T21:43:23.997Z,12.29
2018-04-16T21:45:52.336Z,12.28
2018-04-16T21:48:20.644Z,12.33
2018-04-16T21:50:48.977Z,12.31
2018-04-16T21:53:17.290Z,12.39
2018-04-16T21:55:45.624Z,12.46
2018-04-16T21:58:13.940Z,12.38
2018-04-16T22:00:42.327Z,12.48
2018-04-16T22:03:10.672Z,12.35
2018-04-16T22:05:38.977Z,12.29
2018-04-16T22:08:07.289Z,12.34
2018-04-16T22:10:35.689Z,12.39
2018-04-16T22:13:04.013Z,12.34
2018-04-16T22:15:32.361Z,12.36
2018-04-16T22:18:00.673Z,12.38
2018-04-16T22:20:29.052Z,12.31
2018-04-16T22:22:57.392Z,12.43
2018-04-16T22:25:25.811Z,12.39
2018-04-16T22:27:54.144Z,12.38
2018-04-16T22:30:22.458Z,12.43
2018-04-16T22:32:50.838Z,12.38
2018-04-16T22:35:19.151Z,12.38
2018-04-16T22:37:47.490Z,12.32
2018-04-16T22:40:15.812Z,12.44
2018-04-16T22:42:44.146Z,12.76
2018-04-16T22:45:12.533Z,12.63
2018-04-16T22:47:40.864Z,12.48
2018-04-16T22:50:09.180Z,12.49
2018-04-16T22:52:37.559Z,12.47
2018-04-16T22:55:05.905Z,12.48
2018-04-16T22:57:34.318Z,12.43
2018-04-16T23:00:02.617Z,12.40
2018-04-16T23:02:30.932Z,12.45
2018-04-16T23:04:59.345Z,12.43
2018-04-16T23:07:27.653Z,12.44
2018-04-16T23:09:55.982Z,12.31
2018-04-16T23:12:24.293Z,12.33
2018-04-16T23:14:52.644Z,12.39
2018-04-16T23:17:21.055Z,12.38
2018-04-16T23:19:49.400Z,12.46
2018-04-16T23:22:17.712Z,12.43
2018-04-16T23:24:46.041Z,12.34
2018-04-16T23:27:14.500Z,12.24
2018-04-16T23:29:42.830Z,12.27
2018-04-16T23:32:11.220Z,12.32
2018-04-16T23:34:39.585Z,12.31
2018-04-16T23:37:07.908Z,12.41
2018-04-16T23:39:36.248Z,12.32
2018-04-16T23:42:04.632Z,12.33
2018-04-16T23:44:32.953Z,12.32
2018-04-16T23:47:01.377Z,12.29
2018-04-16T23:49:29.717Z,12.30
2018-04-16T23:51:58.029Z,12.37
2018-04-16T23:54:26.365Z,12.35
2018-04-16T23:56:54.666Z,12.26
2018-04-16T23:59:23.016Z,12.36
